createdAt,value
2019-04-07T00:01:00.824Z,99150.33
2019-04-07T00:03:08.048Z,99149.02
2019-04-07T00:05:16.158Z,99149.89
2019-04-07T00:07:24.184Z,99145.92
2019-04-07T00:09:32.071Z,99143.73
2019-04-07T00:11:38.997Z,99141.09
2019-04-07T00:13:46.084Z,99143.74
2019-04-07T00:15:55.836Z,99142.86
2019-04-07T00:18:02.589Z,99138.45
2019-04-07T00:20:09.808Z,99142.87
2019-04-07T00:22:17.016Z,99140.66
2019-04-07T00:24:23.920Z,99134.09
2019-04-07T00:26:31.153Z,99132.75
2019-04-07T00:28:38.019Z,99132.70
2019-04-07T00:30:46.001Z,99133.14
2019-04-07T00:32:52.783Z,99127.02
2019-04-07T00:34:59.957Z,99127.44
2019-04-07T00:37:07.913Z,99125.67
2019-04-07T00:39:14.844Z,99122.59
2019-04-07T00:41:22.123Z,99119.52
2019-04-07T00:43:29.231Z,99117.36
2019-04-07T00:45:36.152Z,99119.10
2019-04-07T00:47:42.959Z,99113.38
2019-04-07T00:49:50.136Z,99111.60
2019-04-07T00:51:57.530Z,99108.55
2019-04-07T00:54:05.068Z,99107.66
2019-04-07T00:56:13.146Z,99105.45
2019-04-07T00:58:21.364Z,99112.03
2019-04-07T01:00:29.940Z,99101.95
2019-04-07T01:02:37.541Z,99107.64
2019-04-07T01:04:44.622Z,99102.36
2019-04-07T01:06:53.738Z,99098.84
2019-04-07T01:09:01.104Z,99101.89
2019-04-07T01:11:09.821Z,99092.70
2019-04-07T01:13:16.759Z,99100.58
2019-04-07T01:15:24.110Z,99102.31
2019-04-07T01:17:31.134Z,99096.60
2019-04-07T01:19:40.701Z,99099.69
2019-04-07T01:21:48.633Z,99096.60
2019-04-07T01:23:56.931Z,99098.77
2019-04-07T01:26:03.714Z,99097.88
2019-04-07T01:28:11.004Z,99097.45
2019-04-07T01:30:18.359Z,99100.52
2019-04-07T01:32:25.706Z,99094.81
2019-04-07T01:34:32.528Z,99097.89
2019-04-07T01:36:39.300Z,99097.86
2019-04-07T01:38:46.105Z,99098.72
2019-04-07T01:40:57.388Z,99105.71
2019-04-07T01:43:09.164Z,99096.96
2019-04-07T01:45:24.782Z,99099.13
2019-04-07T01:47:33.153Z,99102.17
2019-04-07T01:49:47.650Z,99099.95
2019-04-07T01:52:14.268Z,99098.66
2019-04-07T01:54:24.958Z,99092.05
2019-04-07T01:56:32.718Z,99101.68
2019-04-07T01:58:41.594Z,99095.95
2019-04-07T02:00:48.406Z,99099.89
2019-04-07T02:03:12.878Z,99093.73
2019-04-07T02:05:34.307Z,99089.82
2019-04-07T02:07:44.581Z,99100.33
2019-04-07T02:09:58.711Z,99100.32
2019-04-07T02:12:18.106Z,99097.66
2019-04-07T02:14:32.426Z,99104.63
2019-04-07T02:16:51.265Z,99100.69
2019-04-07T02:19:13.250Z,99097.60
2019-04-07T02:21:29.603Z,99098.90
2019-04-07T02:23:38.186Z,99091.88
2019-04-07T02:25:46.911Z,99088.79
2019-04-07T02:27:58.430Z,99100.59
2019-04-07T02:30:14.511Z,99100.18
2019-04-07T02:32:32.933Z,99102.34
2019-04-07T02:34:57.480Z,99101.02
2019-04-07T02:37:06.632Z,99104.93
2019-04-07T02:39:18.033Z,99103.57
2019-04-07T02:41:38.798Z,99104.02
2019-04-07T02:43:51.279Z,99103.13
2019-04-07T02:46:02.633Z,99101.80
2019-04-07T02:48:24.186Z,99097.41
2019-04-07T02:50:36.684Z,99100.03
2019-04-07T02:52:54.775Z,99089.06
2019-04-07T02:55:04.719Z,99091.25
2019-04-07T02:57:22.221Z,99096.48
2019-04-07T02:59:31.194Z,99092.56
2019-04-07T03:01:38.795Z,99094.27
2019-04-07T03:04:03.258Z,99095.59
2019-04-07T03:06:10.294Z,99097.78
2019-04-07T03:08:35.650Z,99095.60
2019-04-07T03:10:57.635Z,99096.02
2019-04-07T03:13:06.200Z,99097.33
2019-04-07T03:15:16.133Z,99101.27
2019-04-07T03:17:25.643Z,99096.03
2019-04-07T03:19:40.270Z,99098.20
2019-04-07T03:22:06.883Z,99092.06
2019-04-07T03:24:26.517Z,99089.44
2019-04-07T03:26:51.569Z,99092.53
2019-04-07T03:29:03.699Z,99091.23
2019-04-07T03:31:29.736Z,99095.17
2019-04-07T03:33:45.435Z,99088.61
2019-04-07T03:36:01.698Z,99095.21
2019-04-07T03:38:08.624Z,99095.67
2019-04-07T03:40:18.247Z,99094.41
2019-04-07T03:42:32.825Z,99095.27
2019-04-07T03:44:47.608Z,99095.30
2019-04-07T03:46:59.877Z,99093.59
2019-04-07T03:49:16.920Z,99095.34
2019-04-07T03:51:25.683Z,99098.88
2019-04-07T03:53:37.555Z,99093.66
2019-04-07T03:55:49.469Z,99096.30
2019-04-07T03:58:12.105Z,99093.23
2019-04-07T04:01:13.609Z,99091.51
2019-04-07T04:03:22.777Z,99096.80
2019-04-07T04:05:34.292Z,99092.88
2019-04-07T04:07:49.433Z,99092.02
2019-04-07T04:10:14.152Z,99096.81
2019-04-07T04:12:31.798Z,99098.16
2019-04-07T04:14:59.857Z,99095.98
2019-04-07T04:17:06.925Z,99099.91
2019-04-07T04:19:14.457Z,99101.23
2019-04-07T04:21:22.074Z,99099.06
2019-04-07T04:23:30.283Z,99107.84
2019-04-07T04:25:37.487Z,99110.47
2019-04-07T04:27:44.692Z,99110.48
2019-04-07T04:29:52.440Z,99117.48
2019-04-07T04:31:59.873Z,99113.53
2019-04-07T04:34:06.717Z,99112.23
2019-04-07T04:36:13.587Z,99113.97
2019-04-07T04:38:20.447Z,99121.42
2019-04-07T04:40:28.082Z,99117.03
2019-04-07T04:42:35.831Z,99110.87
2019-04-07T04:44:44.207Z,99116.13
2019-04-07T04:46:51.232Z,99116.11
2019-04-07T04:48:58.900Z,99111.72
2019-04-07T04:51:06.660Z,99119.59
2019-04-07T04:53:13.643Z,99109.51
2019-04-07T04:55:20.403Z,99113.93
2019-04-07T04:57:27.191Z,99104.75
2019-04-07T04:59:34.170Z,99107.41
2019-04-07T05:01:40.931Z,99108.27
2019-04-07T05:03:47.598Z,99104.78
2019-04-07T05:05:54.584Z,99113.12
2019-04-07T05:08:04.099Z,99106.98
2019-04-07T05:10:10.349Z,99114.87
2019-04-07T05:12:17.567Z,99115.73
2019-04-07T05:14:25.764Z,99117.50
2019-04-07T05:16:33.217Z,99117.48
2019-04-07T05:18:41.709Z,99123.61
2019-04-07T05:20:48.741Z,99121.89
2019-04-07T05:22:55.499Z,99117.53
2019-04-07T05:25:02.411Z,99117.97
2019-04-07T05:27:09.722Z,99114.48
2019-04-07T05:29:17.035Z,99119.31
2019-04-07T05:31:23.714Z,99122.85
2019-04-07T05:33:30.842Z,99121.98
2019-04-07T05:35:37.963Z,99116.28
2019-04-07T05:37:44.788Z,99114.12
2019-04-07T05:39:51.634Z,99114.58
2019-04-07T05:41:59.079Z,99116.34
2019-04-07T05:44:06.328Z,99116.78
2019-04-07T05:46:13.850Z,99112.84
2019-04-07T05:48:21.605Z,99111.11
2019-04-07T05:50:28.832Z,99108.91
2019-04-07T05:52:39.582Z,99104.55
2019-04-07T05:54:45.061Z,99106.77
2019-04-07T05:56:52.595Z,99108.95
2019-04-07T05:58:59.321Z,99121.22
2019-04-07T06:01:06.359Z,99119.48
2019-04-07T06:03:13.200Z,99116.86
2019-04-07T06:05:19.919Z,99116.01
2019-04-07T06:07:30.304Z,99114.69
2019-04-07T06:09:35.112Z,99119.52
2019-04-07T06:11:41.929Z,99112.08
2019-04-07T06:13:48.770Z,99115.14
2019-04-07T06:15:55.700Z,99115.14
2019-04-07T06:18:02.633Z,99115.60
2019-04-07T06:20:14.257Z,99117.36
2019-04-07T06:22:20.776Z,99119.98
2019-04-07T06:24:31.669Z,99114.32
2019-04-07T06:26:37.003Z,99112.56
2019-04-07T06:28:46.682Z,99112.08
2019-04-07T06:30:53.062Z,99116.96
2019-04-07T06:33:00.667Z,99112.13
2019-04-07T06:35:12.365Z,99116.09
2019-04-07T06:37:17.838Z,99120.91
2019-04-07T06:39:24.569Z,99118.70
2019-04-07T06:41:34.461Z,99113.42
2019-04-07T06:43:41.526Z,99116.91
2019-04-07T06:46:00.346Z,99116.91
2019-04-07T06:48:09.337Z,99122.18
2019-04-07T06:50:45.456Z,99119.08
2019-04-07T06:52:45.177Z,99114.64
2019-04-07T06:54:55.693Z,99105.36
2019-04-07T06:57:20.120Z,99115.81
2019-04-07T06:59:29.276Z,99117.11
2019-04-07T07:01:39.307Z,99120.63
2019-04-07T07:03:46.381Z,99116.61
2019-04-07T07:06:11.095Z,99117.94
2019-04-07T07:08:22.458Z,99114.47
2019-04-07T07:10:37.832Z,99107.75
2019-04-07T07:12:47.108Z,99107.20
2019-04-07T07:15:03.648Z,99107.67
2019-04-07T07:17:14.926Z,99108.03
2019-04-07T07:19:28.558Z,99111.54
2019-04-07T07:21:44.589Z,99118.61
2019-04-07T07:23:52.729Z,99113.74
2019-04-07T07:26:02.691Z,99120.72
2019-04-07T07:28:11.537Z,99118.52
2019-04-07T07:33:57.118Z,99121.94
2019-04-07T07:36:24.651Z,99116.63
2019-04-07T07:38:32.734Z,99111.70
2019-04-07T07:40:40.591Z,99117.95
2019-04-07T07:42:50.947Z,99118.20
2019-04-07T07:44:58.363Z,99121.48
2019-04-07T07:47:06.972Z,99118.23
2019-04-07T07:49:13.791Z,99124.80
2019-04-07T07:51:20.492Z,99121.41
2019-04-07T07:53:28.601Z,99121.75
2019-04-07T07:55:37.611Z,99128.11
2019-04-07T07:57:44.115Z,99118.92
2019-04-07T07:59:50.950Z,99124.47
2019-04-07T08:01:58.703Z,99123.44
2019-04-07T08:04:08.698Z,99125.41
2019-04-07T08:06:16.088Z,99125.34
2019-04-07T08:08:23.428Z,99125.18
2019-04-07T08:10:30.369Z,99120.62
2019-04-07T08:12:37.220Z,99124.02
2019-04-07T08:14:44.647Z,99126.22
2019-04-07T08:16:53.118Z,99120.53
2019-04-07T08:19:00.750Z,99123.28
2019-04-07T08:21:08.706Z,99123.05
2019-04-07T08:23:15.587Z,99124.60
2019-04-07T08:25:24.588Z,99118.92
2019-04-07T08:27:32.056Z,99112.44
2019-04-07T08:29:39.816Z,99114.50
2019-04-07T08:31:51.486Z,99115.97
2019-04-07T08:33:55.941Z,99118.94
2019-04-07T08:36:03.517Z,99115.56
2019-04-07T08:38:11.000Z,99118.58
2019-04-07T08:40:18.743Z,99116.86
2019-04-07T08:42:26.984Z,99118.22
2019-04-07T08:44:34.424Z,99112.45
2019-04-07T08:46:43.146Z,99113.33
2019-04-07T08:48:52.680Z,99101.48
2019-04-07T08:51:00.491Z,99114.31
2019-04-07T08:53:10.359Z,99106.20
2019-04-07T08:55:15.254Z,99104.41
2019-04-07T08:57:23.120Z,99112.95
2019-04-07T08:59:31.393Z,99105.73
2019-04-07T09:01:40.452Z,99105.86
2019-04-07T09:03:48.568Z,99103.11
2019-04-07T09:05:57.770Z,99103.25
2019-04-07T09:08:06.354Z,99099.69
2019-04-07T09:10:18.326Z,99099.45
2019-04-07T09:12:26.879Z,99102.11
2019-04-07T09:14:33.274Z,99099.03
2019-04-07T09:16:44.713Z,99101.52
2019-04-07T09:19:09.959Z,99101.11
2019-04-07T09:21:20.442Z,99105.09
2019-04-07T09:23:29.471Z,99107.94
2019-04-07T09:25:40.026Z,99110.30
2019-04-07T09:27:54.077Z,99110.31
2019-04-07T09:30:07.804Z,99105.39
2019-04-07T09:32:31.306Z,99108.58
2019-04-07T09:34:41.383Z,99103.95
2019-04-07T09:36:53.515Z,99111.77
2019-04-07T09:39:03.842Z,99106.97
2019-04-07T09:41:13.185Z,99107.83
2019-04-07T09:43:19.947Z,99112.44
2019-04-07T09:45:28.839Z,99109.20
2019-04-07T09:47:53.474Z,99113.12
2019-04-07T09:50:20.430Z,99114.05
2019-04-07T09:52:36.052Z,99117.83
2019-04-07T09:54:44.434Z,99111.28
2019-04-07T09:57:10.738Z,99114.83
2019-04-07T09:59:29.672Z,99110.64
2019-04-07T10:01:50.839Z,99119.63
2019-04-07T10:04:14.553Z,99111.94
2019-04-07T10:06:39.098Z,99116.13
2019-04-07T10:09:03.312Z,99121.83
2019-04-07T10:11:12.885Z,99119.02
2019-04-07T10:13:21.546Z,99119.44
2019-04-07T10:15:40.365Z,99114.45
2019-04-07T10:17:49.567Z,99113.24
2019-04-07T10:20:03.020Z,99114.55
2019-04-07T10:22:23.269Z,99114.59
2019-04-07T10:24:34.555Z,99113.60
2019-04-07T10:26:46.232Z,99114.09
2019-04-07T10:29:04.415Z,99110.85
2019-04-07T10:31:19.786Z,99109.82
2019-04-07T10:33:30.417Z,99106.55
2019-04-07T10:35:36.909Z,99109.48
2019-04-07T10:37:51.038Z,99102.55
2019-04-07T10:39:58.181Z,99108.95
2019-04-07T10:42:16.819Z,99113.30
2019-04-07T10:44:24.973Z,99109.84
2019-04-07T10:46:31.527Z,99106.39
2019-04-07T10:48:53.659Z,99107.45
2019-04-07T10:51:12.111Z,99100.64
2019-04-07T10:53:27.306Z,99103.23
2019-04-07T10:55:52.285Z,99105.55
2019-04-07T10:57:59.747Z,99105.44
2019-04-07T11:00:11.085Z,99110.79
2019-04-07T11:02:27.520Z,99106.02
2019-04-07T11:04:35.076Z,99107.14
2019-04-07T11:06:44.049Z,99111.30
2019-04-07T11:09:01.053Z,99112.80
2019-04-07T11:11:09.596Z,99102.48
2019-04-07T11:13:28.990Z,99109.22
2019-04-07T11:15:48.742Z,99109.36
2019-04-07T11:18:11.297Z,99103.55
2019-04-07T11:20:22.750Z,99096.33
2019-04-07T11:22:49.015Z,99100.66
2019-04-07T11:24:55.807Z,99097.10
2019-04-07T11:27:17.050Z,99097.06
2019-04-07T11:29:23.909Z,99103.77
2019-04-07T11:31:32.319Z,99105.52
2019-04-07T11:33:45.039Z,99100.01
2019-04-07T11:35:53.345Z,99101.25
2019-04-07T11:38:17.942Z,99097.18
2019-04-07T11:40:24.680Z,99099.92
2019-04-07T11:42:46.657Z,99100.47
2019-04-07T11:45:03.094Z,99101.87
2019-04-07T11:47:15.457Z,99100.55
2019-04-07T11:49:25.160Z,99099.13
2019-04-07T11:51:40.647Z,99100.23
2019-04-07T11:54:05.261Z,99101.81
2019-04-07T11:56:32.737Z,99093.48
2019-04-07T11:58:47.632Z,99093.82
2019-04-07T12:01:12.807Z,99095.48
2019-04-07T12:03:19.201Z,99100.02
2019-04-07T12:05:28.717Z,99096.62
2019-04-07T12:07:56.540Z,99094.55
2019-04-07T12:10:30.078Z,99092.95
2019-04-07T12:12:54.952Z,99093.29
2019-04-07T12:15:19.650Z,99092.30
2019-04-07T12:17:43.833Z,99097.03
2019-04-07T12:19:55.109Z,99092.67
2019-04-07T12:22:11.255Z,99091.25
2019-04-07T12:24:24.672Z,99087.25
2019-04-07T12:26:31.480Z,99092.50
2019-04-07T12:28:49.118Z,99091.30
2019-04-07T12:31:12.797Z,99083.59
2019-04-07T12:33:20.043Z,99093.50
2019-04-07T12:35:32.424Z,99086.37
2019-04-07T12:37:54.195Z,99088.78
2019-04-07T12:40:09.182Z,99094.65
2019-04-07T12:42:20.334Z,99089.27
2019-04-07T12:44:29.003Z,99087.04
2019-04-07T12:46:40.702Z,99089.81
2019-04-07T12:48:47.954Z,99088.55
2019-04-07T12:51:03.765Z,99090.81
2019-04-07T12:53:25.081Z,99085.02
2019-04-07T12:55:40.529Z,99085.87
2019-04-07T12:57:56.573Z,99087.72
2019-04-07T13:00:21.134Z,99086.57
2019-04-07T13:02:28.406Z,99087.07
2019-04-07T13:04:39.744Z,99086.06
2019-04-07T13:06:48.057Z,99083.77
2019-04-07T13:08:59.546Z,99086.53
2019-04-07T13:11:31.232Z,99087.77
2019-04-07T13:13:47.043Z,99083.36
2019-04-07T13:15:58.234Z,99082.08
2019-04-07T13:18:10.715Z,99086.13
2019-04-07T13:20:31.140Z,99081.05
2019-04-07T13:22:42.518Z,99083.76
2019-04-07T13:25:00.165Z,99080.67
2019-04-07T13:27:22.166Z,99078.66
2019-04-07T13:29:38.723Z,99086.52
2019-04-07T13:31:44.875Z,99087.77
2019-04-07T13:33:59.583Z,99086.20
2019-04-07T13:36:25.322Z,99081.88
2019-04-07T13:38:33.924Z,99081.88
2019-04-07T13:40:58.271Z,99084.70
2019-04-07T13:43:16.493Z,99081.72
2019-04-07T13:45:23.120Z,99076.70
2019-04-07T13:47:33.002Z,99075.36
2019-04-07T13:49:44.759Z,99075.36
2019-04-07T13:52:00.348Z,99073.38
2019-04-07T13:54:20.066Z,99075.59
2019-04-07T13:56:50.665Z,99075.50
2019-04-07T13:59:09.196Z,99076.01
2019-04-07T14:01:32.507Z,99069.16
2019-04-07T14:03:50.447Z,99080.02
2019-04-07T14:06:14.932Z,99077.94
2019-04-07T14:08:29.942Z,99077.10
2019-04-07T14:10:51.405Z,99074.30
2019-04-07T14:13:11.960Z,99076.01
2019-04-07T14:15:20.461Z,99072.28
2019-04-07T14:17:44.914Z,99077.34
2019-04-07T14:19:54.090Z,99077.57
2019-04-07T14:22:00.673Z,99075.95
2019-04-07T14:24:13.154Z,99076.22
2019-04-07T14:26:22.241Z,99074.67
2019-04-07T14:28:44.290Z,99077.23
2019-04-07T14:31:10.880Z,99075.66
2019-04-07T14:33:28.674Z,99084.92
2019-04-07T14:35:36.974Z,99078.58
2019-04-07T14:37:49.540Z,99080.14
2019-04-07T14:40:03.657Z,99082.17
2019-04-07T14:42:18.713Z,99082.02
2019-04-07T14:44:39.065Z,99081.11
2019-04-07T14:46:51.288Z,99078.34
2019-04-07T14:49:02.535Z,99081.20
2019-04-07T14:51:11.209Z,99082.21
2019-04-07T14:53:22.173Z,99080.19
2019-04-07T14:55:37.957Z,99077.88
2019-04-07T14:57:51.155Z,99084.19
2019-04-07T15:00:00.037Z,99087.20
2019-04-07T15:02:07.375Z,99089.51
2019-04-07T15:04:18.184Z,99089.23
2019-04-07T15:06:30.934Z,99090.31
2019-04-07T15:08:46.266Z,99087.73
2019-04-07T15:10:56.232Z,99090.48
2019-04-07T15:13:05.336Z,99090.81
2019-04-07T15:15:12.420Z,99091.52
2019-04-07T15:17:19.330Z,99090.93
2019-04-07T15:19:26.016Z,99094.52
2019-04-07T15:21:34.684Z,99091.80
2019-04-07T15:23:44.831Z,99093.19
2019-04-07T15:25:52.756Z,99099.69
2019-04-07T15:28:01.177Z,99098.58
2019-04-07T15:30:15.292Z,99096.63
2019-04-07T15:32:24.193Z,99099.33
2019-04-07T15:34:34.262Z,99095.80
2019-04-07T15:36:41.460Z,99094.09
2019-04-07T15:38:48.603Z,99093.42
2019-04-07T15:40:55.921Z,99097.04
2019-04-07T15:43:05.734Z,99101.16
2019-04-07T15:45:13.347Z,99100.75
2019-04-07T15:47:21.137Z,99099.95
2019-04-07T15:49:29.515Z,99101.33
2019-04-07T15:51:36.507Z,99112.19
2019-04-07T15:53:46.425Z,99110.59
2019-04-07T15:56:01.128Z,99113.47
2019-04-07T15:58:00.105Z,99109.25
2019-04-07T16:00:11.201Z,99109.83
2019-04-07T16:02:18.059Z,99114.43
2019-04-07T16:04:28.265Z,99115.05
2019-04-07T16:06:35.541Z,99116.14
2019-04-07T16:08:42.331Z,99117.55
2019-04-07T16:10:49.066Z,99121.16
2019-04-07T16:12:58.962Z,99123.41
2019-04-07T16:15:04.928Z,99120.86
2019-04-07T16:17:12.203Z,99122.30
2019-04-07T16:19:33.109Z,99127.69
2019-04-07T16:21:29.756Z,99130.01
2019-04-07T16:23:37.487Z,99129.69
2019-04-07T16:25:44.402Z,99133.34
2019-04-07T16:27:51.559Z,99128.58
2019-04-07T16:29:58.243Z,99126.94
2019-04-07T16:32:05.112Z,99129.70
2019-04-07T16:34:11.876Z,99122.24
2019-04-07T16:36:18.567Z,99131.20
2019-04-07T16:38:28.016Z,99129.14
2019-04-07T16:40:35.062Z,99126.13
2019-04-07T16:42:53.834Z,99128.95
2019-04-07T16:44:53.696Z,99136.16
2019-04-07T16:47:04.029Z,99132.75
2019-04-07T16:49:11.510Z,99132.50
2019-04-07T16:51:18.869Z,99133.47
2019-04-07T16:53:25.896Z,99134.08
2019-04-07T16:55:41.428Z,99132.87
2019-04-07T16:57:50.307Z,99135.73
2019-04-07T17:00:00.410Z,99135.42
2019-04-07T17:02:08.035Z,99136.94
2019-04-07T17:04:15.825Z,99139.72
2019-04-07T17:06:22.946Z,99139.41
2019-04-07T17:08:30.048Z,99140.80
2019-04-07T17:10:37.095Z,99143.52
2019-04-07T17:12:44.034Z,99149.34
2019-04-07T17:14:53.215Z,99147.19
2019-04-07T17:17:00.326Z,99147.73
2019-04-07T17:19:07.627Z,99149.66
2019-04-07T17:21:19.087Z,99156.34
2019-04-07T17:23:26.187Z,99149.33
2019-04-07T17:25:34.590Z,99158.32
2019-04-07T17:27:42.519Z,99158.88
2019-04-07T17:29:54.086Z,99160.73
2019-04-07T17:32:01.676Z,99161.29
2019-04-07T17:34:10.885Z,99162.29
2019-04-07T17:36:21.010Z,99167.30
2019-04-07T17:38:44.327Z,99176.69
2019-04-07T17:40:51.936Z,99169.75
2019-04-07T17:43:02.929Z,99175.72
2019-04-07T17:45:13.850Z,99173.16
2019-04-07T17:47:23.444Z,99176.83
2019-04-07T17:49:50.524Z,99176.31
2019-04-07T17:52:11.077Z,99173.81
2019-04-07T17:54:36.536Z,99174.53
2019-04-07T17:57:04.055Z,99180.06
2019-04-07T17:59:20.958Z,99182.98
2019-04-07T18:01:33.375Z,99186.81
2019-04-07T18:03:58.362Z,99188.74
2019-04-07T18:06:10.090Z,99195.92
2019-04-07T18:08:25.199Z,99192.94
2019-04-07T18:10:32.445Z,99199.69
2019-04-07T18:12:51.545Z,99199.37
2019-04-07T18:15:17.882Z,99208.25
2019-04-07T18:17:29.995Z,99203.03
2019-04-07T18:19:54.785Z,99199.97
2019-04-07T18:22:22.039Z,99199.98
2019-04-07T18:24:37.779Z,99206.17
2019-04-07T18:26:49.279Z,99201.38
2019-04-07T18:29:05.861Z,99200.53
2019-04-07T18:31:36.256Z,99205.80
2019-04-07T18:34:02.477Z,99200.50
2019-04-07T18:36:19.952Z,99205.81
2019-04-07T18:38:34.260Z,99204.95
2019-04-07T18:40:44.038Z,99202.77
2019-04-07T18:43:02.744Z,99208.14
2019-04-07T18:45:21.595Z,99206.87
2019-04-07T18:47:44.619Z,99209.16
2019-04-07T18:50:07.131Z,99215.41
2019-04-07T18:52:26.871Z,99222.50
2019-04-07T18:54:41.108Z,99220.30
2019-04-07T18:56:55.802Z,99219.03
2019-04-07T18:59:21.926Z,99212.44
2019-04-07T19:01:42.681Z,99220.38
2019-04-07T19:03:55.987Z,99219.52
2019-04-07T19:06:20.651Z,99218.19
2019-04-07T19:08:37.868Z,99218.63
2019-04-07T19:11:12.240Z,99216.87
2019-04-07T19:13:18.541Z,99219.97
2019-04-07T19:15:40.798Z,99213.41
2019-04-07T19:17:50.339Z,99218.28
2019-04-07T19:20:17.227Z,99212.17
2019-04-07T19:22:34.616Z,99212.64
2019-04-07T19:24:59.174Z,99217.55
2019-04-07T19:27:28.688Z,99212.73
2019-04-07T19:29:33.773Z,99213.23
2019-04-07T19:31:52.209Z,99213.27
2019-04-07T19:34:07.043Z,99212.84
2019-04-07T19:36:31.382Z,99219.05
2019-04-07T19:38:41.258Z,99220.81
2019-04-07T19:40:49.249Z,99222.19
2019-04-07T19:43:10.704Z,99219.14
2019-04-07T19:45:35.018Z,99217.86
2019-04-07T19:47:50.455Z,99215.67
2019-04-07T19:50:10.803Z,99213.05
2019-04-07T19:52:25.086Z,99213.96
2019-04-07T19:54:34.251Z,99214.42
2019-04-07T19:56:42.361Z,99211.36
2019-04-07T19:58:51.358Z,99217.96
2019-04-07T20:01:06.321Z,99215.31
2019-04-07T20:03:22.181Z,99216.61
2019-04-07T20:05:32.208Z,99217.95
2019-04-07T20:07:56.086Z,99217.05
2019-04-07T20:10:11.041Z,99210.91
2019-04-07T20:12:21.105Z,99215.74
2019-04-07T20:14:55.539Z,99211.78
2019-04-07T20:17:02.773Z,99214.44
2019-04-07T20:19:12.953Z,99213.97
2019-04-07T20:21:40.131Z,99220.57
2019-04-07T20:23:52.520Z,99224.92
2019-04-07T20:26:18.593Z,99227.11
2019-04-07T20:28:33.224Z,99225.34
2019-04-07T20:30:49.629Z,99226.61
2019-04-07T20:33:02.885Z,99230.17
2019-04-07T20:35:15.949Z,99223.59
2019-04-07T20:37:27.907Z,99227.53
2019-04-07T20:39:56.722Z,99227.05
2019-04-07T20:42:05.161Z,99223.09
2019-04-07T20:44:19.320Z,99229.22
2019-04-07T20:46:41.713Z,99227.45
2019-04-07T20:48:49.642Z,99227.89
2019-04-07T20:51:05.134Z,99229.20
2019-04-07T20:53:29.872Z,99227.88
2019-04-07T20:55:53.987Z,99230.09
2019-04-07T20:58:24.305Z,99227.88
2019-04-07T21:00:57.680Z,99230.94
2019-04-07T21:03:22.084Z,99231.77
2019-04-07T21:05:37.824Z,99233.97
2019-04-07T21:07:44.956Z,99234.81
2019-04-07T21:09:54.303Z,99228.17
2019-04-07T21:12:03.528Z,99235.12
2019-04-07T21:14:11.833Z,99231.98
2019-04-07T21:16:33.344Z,99233.20
2019-04-07T21:18:59.085Z,99236.22
2019-04-07T21:21:12.293Z,99236.57
2019-04-07T21:23:21.655Z,99240.88
2019-04-07T21:25:33.829Z,99239.51
2019-04-07T21:27:49.054Z,99238.59
2019-04-07T21:30:00.608Z,99242.04
2019-04-07T21:32:09.811Z,99245.05
2019-04-07T21:34:34.739Z,99242.87
2019-04-07T21:36:49.035Z,99239.78
2019-04-07T21:39:14.268Z,99234.91
2019-04-07T21:41:30.703Z,99232.26
2019-04-07T21:43:43.407Z,99240.98
2019-04-07T21:45:54.359Z,99237.92
2019-04-07T21:48:10.368Z,99242.31
2019-04-07T21:50:28.197Z,99238.36
2019-04-07T21:52:54.484Z,99239.69
2019-04-07T21:55:01.822Z,99235.33
2019-04-07T21:57:26.768Z,99235.81
2019-04-07T21:59:33.684Z,99231.91
2019-04-07T22:01:51.296Z,99231.08
2019-04-07T22:04:06.835Z,99229.36
2019-04-07T22:06:17.986Z,99232.00
2019-04-07T22:08:26.381Z,99230.22
2019-04-07T22:10:34.005Z,99228.89
2019-04-07T22:12:40.996Z,99224.06
2019-04-07T22:14:47.898Z,99224.94
2019-04-07T22:16:54.782Z,99224.90
2019-04-07T22:19:02.686Z,99234.09
2019-04-07T22:21:09.752Z,99229.32
2019-04-07T22:23:16.738Z,99228.97
2019-04-07T22:25:36.175Z,99231.64
2019-04-07T22:27:44.142Z,99229.88
2019-04-07T22:29:51.914Z,99232.08
2019-04-07T22:31:59.811Z,99232.91
2019-04-07T22:34:06.953Z,99227.64
2019-04-07T22:36:14.631Z,99229.39
2019-04-07T22:38:23.723Z,99232.46
2019-04-07T22:40:34.222Z,99229.80
2019-04-07T22:42:39.260Z,99225.83
2019-04-07T22:44:46.041Z,99229.75
2019-04-07T22:46:52.729Z,99231.06
2019-04-07T22:48:59.708Z,99226.21
2019-04-07T22:51:09.904Z,99224.44
2019-04-07T22:53:15.155Z,99227.45
2019-04-07T22:55:22.666Z,99233.57
2019-04-07T22:57:31.349Z,99226.54
2019-04-07T22:59:38.114Z,99226.08
2019-04-07T23:01:45.850Z,99231.28
2019-04-07T23:03:52.583Z,99229.48
2019-04-07T23:06:00.988Z,99224.63
2019-04-07T23:08:08.278Z,99231.56
2019-04-07T23:10:15.992Z,99232.41
2019-04-07T23:12:22.981Z,99234.54
2019-04-07T23:14:29.790Z,99230.98
2019-04-07T23:16:36.507Z,99230.50
2019-04-07T23:18:43.274Z,99239.61
2019-04-07T23:20:49.981Z,99236.95
2019-04-07T23:22:56.765Z,99238.70
2019-04-07T23:25:04.409Z,99237.80
2019-04-07T23:27:12.460Z,99242.55
2019-04-07T23:29:19.834Z,99238.55
2019-04-07T23:31:27.869Z,99239.38
2019-04-07T23:33:34.892Z,99239.34
2019-04-07T23:35:41.585Z,99238.07
2019-04-07T23:37:48.868Z,99237.64
2019-04-07T23:39:55.675Z,99232.80
2019-04-07T23:42:02.801Z,99237.05
2019-04-07T23:44:09.797Z,99236.56
2019-04-07T23:46:22.864Z,99237.34
2019-04-07T23:48:25.043Z,99240.36
2019-04-07T23:50:31.755Z,99245.08
2019-04-07T23:52:39.063Z,99243.69
2019-04-07T23:54:46.146Z,99239.66
2019-04-07T23:56:54.004Z,99239.13
2019-04-07T23:59:01.255Z,99243.88
